x

South Santa Rosa Is. Ca (46069) Wave Buoy

12:50 - Sat 24th Sep 2016 All times are PDT. -7 hours from GMT.

  • Sig Wave height 5.2ft
  • Swell Direction
  • Peak Period 17s
  • Average Period 7s
  • Wind
    4mph, 7mph gusts
  • Sea Temp 62°f
  • Ar Temp 63°f
  • Sea Pressure 1016.4mb
  • South Santa Rosa Is. Ca
  • South Santa Rosa Is. Ca

More Historic Weather Station data

Upgrade to MSW Pro to gain access to the past 30 days of data for over 8000 Wavebouys and Weather Stations around the globe.

Join Pro

Comparision Forecast

View Surf forecast
   
Sáb 09/24 12:50 5ft 17s 7s 4 7 mph 1016.4mb 62f 63f
11:50 5.5ft 17s 8s 7 9 mph 1016.7mb 62f 63f
10:50 5.5ft 17s 7s 7 9 mph 1016.8mb 62f 63f
9:50 6.5ft 17s 8s 4
mph
1016.4mb 61f 62f
8:50 7ft 17s 8s 4
mph
1015.8mb 61f 62f
7:50 7ft 17s 8s 11 13 mph 1015.5mb 61f 62f
6:50 7ft 17s 7s 13 16 mph 1015mb 61f 62f
5:50 7ft 17s 7s 16 20 mph 1014.6mb 61f 62f
4:50 8ft 17s 7s 18 20 mph 1014.4mb 61f 61f
3:50 7.5ft 9s 6s 20 22 mph 1014.3mb 61f 61f
2:50 8ft 8s 7s 22 27 mph 1014.7mb 61f 61f
12:50 7.5ft 17s 6s 20 25 mph 1014.9mb 61f 61f
Sex 09/23 11:50 8ft 17s 7s 20 27 mph 1015mb 61f 61f
10:50 8.5ft 8s 6s 25 29 mph 1014.9mb 61f 61f
9:50 8ft 17s 6s 27 34 mph 1015mb 61f 61f
8:50 8.5ft 8s 6s 29 36 mph 1014.8mb 60f 62f
7:50 8ft 17s 6s 29 36 mph 1014.7mb 61f 62f
6:50 8ft 9s 6s 29 36 mph 1014.6mb 61f 62f
5:50 8.5ft 19s 7s 27 34 mph 1014.8mb 61f 62f
4:50 8ft 17s 6s 27 34 mph 1014.9mb 61f 61f
3:50 8ft 8s 6s 25 29 mph 1015.6mb 61f 60f
2:50 8ft 8s 7s 22 25 mph 1016.2mb 61f 60f
1:50 8ft 19s 7s 25 29 mph 1016.4mb 61f 60f
12:50 8.5ft 19s 7s 22 29 mph 1017.1mb 61f 60f
10:50 9ft 8s 7s 25 31 mph 1017.5mb 61f 60f
9:50 8ft 9s 7s 25 31 mph 1016.7mb 61f 59f
8:50 9ft 8s 7s 27 31 mph 1016.2mb 60f 59f
7:50 9ft 8s 7s 27 31 mph 1015.9mb 60f 59f
5:50 9ft 9s 6s 27 31 mph 1015.2mb 60f 59f
4:50 9ft 8s 6s 25 29 mph 1015mb 60f 59f
3:50 9ft 9s 6s 27 34 mph 1014.7mb 60f 59f
2:50 9ft 9s 7s 25 29 mph 1015.1mb 61f 59f
1:50 9.5ft 9s 7s 27 34 mph 1014.8mb 61f 59f
12:50 10ft 9s 7s 27 31 mph 1015.1mb 61f 59f
Qui 09/22 11:50 9.5ft 9s 7s 27 31 mph 1015.1mb 61f 59f
10:50 10ft 9s 7s 27 34 mph 1015.2mb 61f 59f
9:50 10.5ft 8s 6s 29 34 mph 1014.9mb 61f 60f
8:50 10ft 10s 7s 29 38 mph 1014.6mb 61f 60f
7:50 11ft 8s 7s 29 38 mph 1013.6mb 61f 60f
6:50 11ft 8s 7s 31 40 mph 1013.4mb 61f 60f
5:50 11ft 9s 7s 31 40 mph 1013.3mb 61f 60f
4:50 10ft 8s 7s 31 40 mph 1013.4mb 61f 60f
3:50 10ft 9s 7s 29 36 mph 1014mb 61f 60f
2:50 10.5ft 9s 7s 31 38 mph 1014mb 61f 60f
1:50 10ft 8s 7s 27 34 mph 1015.2mb 61f 60f
12:50 11ft 9s 7s 27 36 mph 1015.8mb 61f 60f
11:50 11ft 9s 7s 29 36 mph 1015.9mb 61f 60f
10:50 11ft 9s 7s 34 38 mph 1016mb 61f 59f
9:50 10.5ft 10s 7s 31 38 mph 1015.2mb 61f 60f
8:50 11ft 10s 7s 31 38 mph 1014.7mb 61f 60f
7:50 11ft 9s 7s 31 38 mph 1014.2mb 61f 60f
6:50 11.5ft 10s  -  31 38 mph 1013.6mb 62f 60f
5:50 11ft 10s 7s 34 40 mph 1012.7mb 61f 60f
4:50 12.5ft 10s 7s 29 38 mph 1012.7mb 62f 60f
3:50 12ft 8s 7s 31 38 mph 1012.2mb 62f 61f
2:50 10ft 9s 7s 34 43 mph 1011.8mb 62f 61f
1:50 10ft 8s 7s 31 38 mph 1011.8mb 62f 61f
12:50 10.5ft 9s 7s 34 40 mph 1011.8mb 62f 61f
Qua 09/21 11:50 10ft 9s 7s 29 36 mph 1012mb 63f 62f
10:50 10.5ft 8s 7s 31 36 mph 1011.9mb 63f 62f
9:50 9ft 8s 7s 27 34 mph 1011.9mb 63f 62f
8:50 9ft 7s 7s 29 36 mph 1011.4mb 63f 62f
7:50 9ft 7s 6s 29 34 mph 1011.2mb 64f 62f
6:50 7.5ft 10s 6s 29 34 mph 1011.3mb 64f 62f
5:50 7ft 11s 6s 29 34 mph 1011.3mb 64f 63f
4:50 7.5ft 11s 6s 25 31 mph 1011.5mb 64f 63f
3:50 7ft 11s 6s 25 29 mph 1011.6mb 64f 63f
2:50 7ft 11s 6s 22 27 mph 1012mb 64f 63f
1:50 6.5ft 10s 6s 20 25 mph 1012.4mb 64f 62f
12:50 6.5ft 11s 6s 20 27 mph 1013mb 64f 62f
11:50 6.5ft 8s 6s 20 25 mph 1013.2mb 64f 62f
10:50 6ft 11s 7s 20 22 mph 1013.5mb 64f 62f
9:50 6.5ft 11s 7s 18 20 mph 1013.4mb 64f 62f
8:50 5.5ft 9s 7s 16 20 mph 1012.8mb 64f 62f
7:50 5.5ft 11s 7s 16 20 mph 1012.5mb 64f 61f
6:50 5ft 11s 7s 16 18 mph 1011.9mb 64f 60f
5:50 5.5ft 11s 8s 13 18 mph 1012mb 64f 60f
4:50 5ft 10s 7s 13 18 mph 1011.9mb 64f 61f
3:50 5ft 12s 8s 11 13 mph 1012.3mb 64f 61f
2:50 5.5ft 12s 8s 13 16 mph 1012.6mb 64f 60f
1:50 5ft 10s 8s 11 13 mph 1012.9mb 64f 61f
12:50 5ft 11s 7s 11 13 mph 1013.1mb 64f 61f
Ter 09/20 11:50 4.5ft 11s 7s 13 16 mph 1013.1mb 64f 61f
10:50 5ft 12s 8s 16 20 mph 1013.2mb 64f 61f
9:50 5ft 12s 8s 13 18 mph 1013.3mb 64f 61f